Time;durP1;ratioP1;P1;durP2;ratioP2;P2;SDS_P1;SDS_P2;PMS_P1;PMS_P2;Temp;Humidity;BMP_temperature;BMP_pressure;BME280_temperature;BME280_humidity;BME280_pressure;Samples;Min_cycle;Max_cycle;Signal;HPM_P1;HPM_P2
2022/09/18 00:01:15;;;;;;;5.90;5.40;;;;;;;10.71;100.00;101104.91;6016675;23;20031;-72
2022/09/18 00:03:42;;;;;;;4.28;4.07;;;;;;;10.68;100.00;101105.03;6007344;23;20039;-72
2022/09/18 00:06:12;;;;;;;5.47;5.28;;;;;;;10.67;100.00;101095.47;6008999;23;20037;-71
2022/09/18 00:08:39;;;;;;;4.93;4.50;;;;;;;10.32;100.00;101055.97;6027330;23;20022;-71
2022/09/18 00:11:07;;;;;;;5.97;5.68;;;;;;;10.66;100.00;101106.88;6018377;23;20360;-71
2022/09/18 00:13:36;;;;;;;4.30;4.10;;;;;;;10.11;100.00;101017.56;6014814;23;20034;-72
2022/09/18 00:16:04;;;;;;;5.70;5.43;;;;;;;10.16;100.00;101029.53;6013410;23;20448;-72
2022/09/18 00:18:30;;;;;;;4.82;4.55;;;;;;;10.66;100.00;101096.38;6022598;23;20052;-73
2022/09/18 00:21:14;;;;;;;7.18;4.75;;;;;;;10.24;100.00;101028.31;6024105;23;20798;-73
2022/09/18 00:23:42;;;;;;;4.68;4.47;;;;;;;10.03;100.00;100998.69;6002886;23;20034;-72
2022/09/18 00:26:10;;;;;;;5.95;5.53;;;;;;;10.66;100.00;101099.00;6022600;23;20027;-72
2022/09/18 00:28:37;;;;;;;4.13;3.92;;;;;;;10.63;100.00;101093.91;6025869;23;20080;-73
2022/09/18 00:31:10;;;;;;;5.65;5.40;;;;;;;10.65;100.00;101093.84;6022252;23;20425;-73
2022/09/18 00:33:38;;;;;;;;;;;;;;;10.64;100.00;101094.75;6013381;23;20095;-72
2022/09/18 00:36:07;;;;;;;5.85;5.55;;;;;;;10.65;100.00;101096.47;6013199;23;20448;-72
2022/09/18 00:38:34;;;;;;;4.38;4.18;;;;;;;10.43;100.00;101065.13;6007340;23;20092;-72
2022/09/18 00:41:03;;;;;;;5.93;5.63;;;;;;;10.61;100.00;101090.50;5979836;23;20077;-73
2022/09/18 00:43:32;;;;;;;4.40;4.20;;;;;;;10.50;100.00;101066.53;6042191;23;20011;-72
2022/09/18 00:46:03;;;;;;;6.35;5.97;;;;;;;10.01;100.00;100996.13;6053092;23;20018;-73
2022/09/18 00:48:42;;;;;;;4.53;4.32;;;;;;;10.27;100.00;101047.41;6033797;23;20017;-73
2022/09/18 00:51:08;;;;;;;5.93;5.65;;;;;;;10.41;100.00;101048.59;6048485;23;20023;-73
2022/09/18 00:53:39;;;;;;;4.53;4.30;;;;;;;10.61;100.00;101087.88;6045673;23;20034;-73
2022/09/18 00:56:06;;;;;;;4.95;4.68;;;;;;;10.25;100.00;101030.88;6049078;23;20424;-73
2022/09/18 00:58:34;;;;;;;4.45;4.25;;;;;;;10.43;100.00;101050.22;6051660;23;20553;-72
2022/09/18 01:01:01;;;;;;;5.25;5.05;;;;;;;10.59;100.00;101076.59;6047588;23;20057;-72
2022/09/18 01:03:28;;;;;;;4.40;4.20;;;;;;;9.96;100.00;100980.63;6047852;23;20018;-73
2022/09/18 01:06:07;;;;;;;4.50;4.30;;;;;;;10.59;100.00;101084.47;6052115;23;20562;-72
2022/09/18 01:08:50;;;;;;;4.40;4.10;;;;;;;9.81;100.00;100959.47;6060249;23;20014;-73
2022/09/18 01:11:39;;;;;;;4.30;4.10;;;;;;;10.43;100.00;101052.00;6045578;23;20062;-73
2022/09/18 01:14:26;;;;;;;5.65;5.43;;;;;;;10.61;100.00;101089.66;6058881;23;20097;-73
2022/09/18 01:17:11;;;;;;;4.60;4.40;;;;;;;10.62;100.00;101084.31;6045451;23;20560;-73
2022/09/18 01:19:59;;;;;;;4.32;4.13;;;;;;;10.60;100.00;101086.16;6045720;23;20085;-74
2022/09/18 01:22:47;;;;;;;4.22;4.03;;;;;;;10.58;100.00;101090.63;6046330;23;20676;-72
2022/09/18 01:25:13;;;;;;;4.68;4.47;;;;;;;10.59;100.00;101097.59;6054835;23;20072;-73
2022/09/18 01:27:57;;;;;;;4.50;4.30;;;;;;;10.58;100.00;101088.00;6049458;23;20081;-73
2022/09/18 01:30:24;;;;;;;4.28;4.07;;;;;;;10.25;100.00;101032.66;6062305;23;20083;-74
2022/09/18 01:32:57;;;;;;;5.57;5.28;;;;;;;9.11;100.00;100843.78;6029066;23;20026;-74
2022/09/18 01:35:44;;;;;;;4.10;3.90;;;;;;;10.15;100.00;101026.97;6048405;23;20026;-74
2022/09/18 01:38:18;;;;;;;5.93;5.63;;;;;;;10.63;100.00;101095.69;6018717;23;20034;-73
2022/09/18 01:40:53;;;;;;;4.25;4.05;;;;;;;10.61;100.00;101090.50;6052958;23;20100;-73
2022/09/18 01:43:22;;;;;;;4.22;4.03;;;;;;;10.49;100.00;101076.19;6019417;23;20019;-71
2022/09/18 01:45:53;;;;;;;4.35;4.15;;;;;;;10.55;100.00;101085.53;6026400;23;20085;-74
2022/09/18 01:48:26;;;;;;;4.20;4.00;;;;;;;10.59;100.00;101097.59;6018642;23;20019;-73
2022/09/18 01:50:59;;;;;;;4.30;4.10;;;;;;;10.29;100.00;101040.31;6020901;23;20100;-71
2022/09/18 01:53:35;;;;;;;4.47;4.25;;;;;;;10.31;100.00;101029.81;6023711;23;20078;-71
2022/09/18 01:56:08;;;;;;;5.30;5.10;;;;;;;10.60;100.00;101075.66;6016070;23;20026;-72
2022/09/18 01:58:36;;;;;;;;;;;;;;;10.62;100.00;101073.81;5999851;23;20018;-71
2022/09/18 02:01:12;;;;;;;5.50;5.10;;;;;;;10.25;100.00;101017.78;6018316;23;19922;-71
2022/09/18 02:03:44;;;;;;;4.35;4.15;;;;;;;10.64;100.00;101074.59;6002491;23;20030;-73
2022/09/18 02:06:18;;;;;;;5.68;5.38;;;;;;;10.49;100.00;101054.34;6011198;23;20031;-72
2022/09/18 02:08:56;;;;;;;4.20;4.00;;;;;;;10.61;100.00;101074.75;5991247;23;20367;-71
2022/09/18 02:11:23;;;;;;;4.40;4.20;;;;;;;9.97;100.00;100979.69;6014003;23;20023;-71
2022/09/18 02:14:00;;;;;;;5.38;4.60;;;;;;;10.33;100.00;101035.81;6031775;23;20018;-71
2022/09/18 02:16:43;;;;;;;4.38;4.18;;;;;;;10.38;100.00;101042.56;6022093;23;20158;-73
2022/09/18 02:19:21;;;;;;;6.00;5.70;;;;;;;9.58;100.00;100925.53;6026120;23;20086;-73
2022/09/18 02:21:50;;;;;;;4.97;4.70;;;;;;;10.26;100.00;101036.97;5992091;23;20022;-73
2022/09/18 02:24:19;;;;;;;4.30;4.10;;;;;;;10.55;100.00;101080.28;6025197;23;20400;-72
2022/09/18 02:26:50;;;;;;;4.35;4.15;;;;;;;9.91;100.00;100971.25;6021245;23;20775;-72
2022/09/18 02:29:19;;;;;;;4.38;4.18;;;;;;;10.38;100.00;101058.31;6020177;23;20602;-73
2022/09/18 02:31:47;;;;;;;4.35;4.15;;;;;;;9.16;100.00;100837.44;6031756;23;20014;-72
2022/09/18 02:34:14;;;;;;;4.47;4.25;;;;;;;10.57;100.00;101065.34;6014192;23;20015;-72
2022/09/18 02:36:52;;;;;;;4.30;4.10;;;;;;;10.44;100.00;101037.94;6019370;23;20022;-72
2022/09/18 02:39:24;;;;;;;4.97;4.78;;;;;;;10.55;100.00;101057.53;6022408;23;20022;-73
2022/09/18 02:42:06;;;;;;;4.75;4.55;;;;;;;10.59;100.00;101053.00;6024030;23;20015;-73
2022/09/18 02:44:35;;;;;;;4.80;4.43;;;;;;;10.54;100.00;101047.09;6046773;23;20011;-73
2022/09/18 02:47:44;;;;;;;5.70;5.40;;;;;;;10.52;100.00;101041.94;6027369;23;20094;-73
2022/09/18 02:50:22;;;;;;;6.03;5.72;;;;;;;10.50;100.00;101045.53;6062209;23;20033;-72
2022/09/18 02:52:54;;;;;;;4.55;4.35;;;;;;;10.49;100.00;101046.47;6056907;23;20607;-73
2022/09/18 02:55:26;;;;;;;4.95;4.65;;;;;;;10.48;100.00;101044.75;6058975;23;20077;-72
2022/09/18 02:58:00;;;;;;;4.88;4.60;;;;;;;10.36;100.00;101015.56;6054289;23;20019;-73
2022/09/18 03:00:30;;;;;;;4.70;4.50;;;;;;;10.45;100.00;101045.75;6064996;23;20076;-72
2022/09/18 03:02:58;;;;;;;5.63;5.32;;;;;;;10.10;100.00;100973.88;6048566;23;20023;-72
2022/09/18 03:05:25;;;;;;;4.80;4.32;;;;;;;10.35;100.00;101015.63;6059773;23;20007;-71
2022/09/18 03:07:54;;;;;;;4.75;4.45;;;;;;;10.05;100.00;100955.75;6039076;23;20026;-71
2022/09/18 03:10:20;;;;;;;5.18;4.88;;;;;;;10.19;100.00;100984.81;6061388;23;20080;-71
2022/09/18 03:12:46;;;;;;;5.57;5.28;;;;;;;10.22;100.00;100982.97;6053215;23;20526;-72
2022/09/18 03:15:13;;;;;;;5.57;5.28;;;;;;;9.96;100.00;100946.53;6067282;23;20025;-71
2022/09/18 03:17:39;;;;;;;5.85;5.45;;;;;;;10.48;100.00;101023.75;6050299;23;20018;-71
2022/09/18 03:20:06;;;;;;;6.55;6.25;;;;;;;10.30;100.00;101000.09;6065504;23;20085;-71
2022/09/18 03:22:32;;;;;;;4.93;4.63;;;;;;;10.46;100.00;101029.06;6050951;23;20019;-73
2022/09/18 03:24:58;;;;;;;6.35;5.57;;;;;;;10.46;100.00;101025.59;6061864;23;20033;-71
2022/09/18 03:27:25;;;;;;;4.97;4.68;;;;;;;10.26;100.00;101000.25;6051057;23;20029;-71
2022/09/18 03:29:51;;;;;;;5.97;5.55;;;;;;;9.56;100.00;100895.91;6056386;23;20026;-71
2022/09/18 03:32:18;;;;;;;4.78;4.57;;;;;;;10.30;100.00;101007.97;6055894;23;20015;-72
2022/09/18 03:34:44;;;;;;;4.57;4.38;;;;;;;9.47;100.00;100871.91;6053697;23;20042;-72
2022/09/18 03:37:10;;;;;;;5.75;5.45;;;;;;;9.81;100.00;100936.75;6059741;23;20051;-72
2022/09/18 03:39:37;;;;;;;4.80;4.47;;;;;;;10.45;100.00;101037.88;6056192;23;20022;-72
2022/09/18 03:42:03;;;;;;;6.35;5.88;;;;;;;10.13;100.00;100989.50;6038224;23;20114;-73
2022/09/18 03:44:32;;;;;;;4.13;3.92;;;;;;;9.78;100.00;100926.38;6055292;23;20585;-73
2022/09/18 03:46:58;;;;;;;5.47;5.18;;;;;;;10.46;100.00;101039.56;6054493;23;20088;-73
2022/09/18 03:49:25;;;;;;;4.70;4.50;;;;;;;9.85;100.00;100934.84;6031257;23;20633;-73
2022/09/18 03:51:51;;;;;;;4.38;4.18;;;;;;;9.18;100.00;100819.91;6025545;23;20508;-73
2022/09/18 03:54:18;;;;;;;5.55;4.38;;;;;;;10.41;100.00;101038.09;6047831;23;20170;-72
2022/09/18 03:56:44;;;;;;;4.43;4.22;;;;;;;10.33;100.00;101015.69;6058881;23;20030;-72
2022/09/18 03:59:10;;;;;;;5.53;5.30;;;;;;;9.61;100.00;100910.59;6057653;23;20022;-72
2022/09/18 04:01:37;;;;;;;4.28;4.07;;;;;;;10.26;100.00;101003.72;6051533;23;20034;-72
2022/09/18 04:04:03;;;;;;;5.95;5.65;;;;;;;10.42;100.00;101024.03;6037344;23;20425;-73
2022/09/18 04:06:29;;;;;;;4.85;4.45;;;;;;;10.06;100.00;100956.59;6046398;23;20022;-73
2022/09/18 04:08:56;;;;;;;4.43;4.22;;;;;;;10.38;100.00;101029.44;6064757;23;20006;-72
2022/09/18 04:11:22;;;;;;;5.15;4.95;;;;;;;10.38;100.00;101018.09;6056513;23;20638;-73
2022/09/18 04:13:49;;;;;;;4.63;4.43;;;;;;;10.38;100.00;101023.31;6055300;23;20011;-72
2022/09/18 04:16:15;;;;;;;4.80;4.60;;;;;;;10.07;100.00;100961.75;6049481;23;20022;-72
2022/09/18 04:18:42;;;;;;;4.43;4.22;;;;;;;10.38;100.00;101018.09;6030533;23;20103;-73
2022/09/18 04:21:08;;;;;;;6.20;5.70;;;;;;;9.79;100.00;100915.00;6050265;23;20029;-72
2022/09/18 04:23:35;;;;;;;4.70;4.50;;;;;;;10.38;100.00;101018.09;6060245;23;20328;-73
2022/09/18 04:26:08;;;;;;;5.85;5.55;;;;;;;9.87;100.00;100935.63;6062087;23;20084;-73
2022/09/18 04:28:36;;;;;;;4.63;4.43;;;;;;;10.35;100.00;101015.63;6036794;23;20026;-73
2022/09/18 04:31:03;;;;;;;5.93;5.63;;;;;;;10.36;100.00;101020.81;6052268;23;20055;-73
2022/09/18 04:33:29;;;;;;;4.10;3.90;;;;;;;9.69;100.00;100909.31;6055694;23;20027;-73
2022/09/18 04:35:56;;;;;;;4.40;4.20;;;;;;;10.35;100.00;101013.84;6040345;23;20072;-73
2022/09/18 04:38:26;;;;;;;4.90;4.60;;;;;;;10.36;100.00;101015.56;6032784;23;20018;-73
2022/09/18 04:40:56;;;;;;;4.43;4.22;;;;;;;10.40;100.00;101015.41;6049125;23;21697;-73
2022/09/18 04:43:23;;;;;;;4.68;4.43;;;;;;;10.22;100.00;100980.34;6055752;23;20022;-72
2022/09/18 04:45:50;;;;;;;5.07;4.78;;;;;;;9.87;100.00;100923.34;6038902;23;20041;-74
2022/09/18 04:48:18;;;;;;;4.60;4.40;;;;;;;10.40;100.00;100997.03;6050010;23;20018;-73
2022/09/18 04:50:45;;;;;;;4.82;4.57;;;;;;;10.02;100.00;100936.66;6061564;23;20736;-72
2022/09/18 04:53:12;;;;;;;6.25;5.88;;;;;;;10.41;100.00;101001.38;6040271;23;20419;-72
2022/09/18 04:55:42;;;;;;;4.85;4.63;;;;;;;10.34;100.00;100999.03;6051792;23;20018;-72
2022/09/18 04:58:08;;;;;;;5.05;4.75;;;;;;;10.47;100.00;101011.56;6062161;23;20060;-72
2022/09/18 05:00:36;;;;;;;4.82;4.57;;;;;;;10.46;100.00;101009.84;6050810;23;20083;-72
2022/09/18 05:03:04;;;;;;;6.68;6.38;;;;;;;9.83;100.00;100903.44;6053686;23;20090;-72
2022/09/18 05:05:31;;;;;;;5.15;4.75;;;;;;;10.41;100.00;101007.47;6052499;23;20007;-73
2022/09/18 05:07:59;;;;;;;5.07;4.80;;;;;;;10.36;100.00;100980.56;6056510;23;20021;-72
2022/09/18 05:10:26;;;;;;;4.97;4.68;;;;;;;10.41;100.00;100996.13;6036953;23;20065;-72
2022/09/18 05:12:53;;;;;;;4.53;4.32;;;;;;;10.52;100.00;101005.19;6055197;23;20026;-72
2022/09/18 05:15:20;;;;;;;4.70;4.50;;;;;;;10.35;100.00;100974.47;6045991;23;21634;-72
2022/09/18 05:17:47;;;;;;;5.22;4.93;;;;;;;10.42;100.00;100974.19;6050616;23;20022;-72
2022/09/18 05:20:13;;;;;;;5.50;5.20;;;;;;;10.52;100.00;101005.19;6046598;23;20036;-72
2022/09/18 05:22:44;;;;;;;5.15;4.85;;;;;;;10.55;100.00;100993.69;6051748;23;20081;-72
2022/09/18 05:25:11;;;;;;;5.40;5.13;;;;;;;10.12;100.00;100943.19;6042617;23;20100;-72
2022/09/18 05:27:38;;;;;;;5.65;4.55;;;;;;;10.55;100.00;100999.78;6057206;23;20018;-74
2022/09/18 05:30:05;;;;;;;6.05;5.75;;;;;;;10.57;100.00;101007.59;6051893;23;20034;-74
2022/09/18 05:32:31;;;;;;;4.43;4.22;;;;;;;10.09;100.00;100928.47;6062213;23;20084;-73
2022/09/18 05:34:58;;;;;;;4.30;4.10;;;;;;;10.08;100.00;100924.16;6054117;23;20257;-74
2022/09/18 05:37:24;;;;;;;4.82;4.53;;;;;;;10.27;100.00;100941.63;6065149;23;20041;-74
2022/09/18 05:39:50;;;;;;;4.55;4.30;;;;;;;10.60;100.00;100991.69;6052700;23;20073;-75
2022/09/18 05:42:17;;;;;;;5.53;5.00;;;;;;;10.64;100.00;100998.50;6051224;23;20026;-75
2022/09/18 05:44:43;;;;;;;4.30;4.10;;;;;;;10.24;100.00;100934.75;6007226;23;20078;-75
2022/09/18 05:47:10;;;;;;;5.60;5.30;;;;;;;9.75;100.00;100853.16;6027239;23;20046;-75
2022/09/18 05:49:36;;;;;;;4.20;4.00;;;;;;;10.29;100.00;100951.13;6034426;23;20133;-75
2022/09/18 05:52:02;;;;;;;5.63;5.32;;;;;;;9.82;100.00;100870.28;6018417;23;20025;-73
2022/09/18 05:54:29;;;;;;;4.07;3.88;;;;;;;9.41;100.00;100793.59;6008492;23;20089;-74
2022/09/18 05:56:56;;;;;;;5.35;4.95;;;;;;;10.18;100.00;100909.69;6044502;23;20054;-74
2022/09/18 05:59:22;;;;;;;4.50;4.20;;;;;;;9.10;100.00;100753.06;6017437;23;20017;-75
2022/09/18 06:01:49;;;;;;;4.70;4.50;;;;;;;10.05;100.00;100902.47;6000933;23;20089;-75
2022/09/18 06:04:15;;;;;;;6.60;6.30;;;;;;;10.07;100.00;100911.09;6001630;23;20641;-74
2022/09/18 06:06:41;;;;;;;4.47;4.28;;;;;;;10.71;100.00;101010.41;6019943;23;20030;-74
2022/09/18 06:09:09;;;;;;;4.60;4.40;;;;;;;10.63;100.00;100996.81;6027553;23;20035;-72
2022/09/18 06:11:36;;;;;;;4.57;4.38;;;;;;;10.75;100.00;101013.75;6032099;23;20015;-74
2022/09/18 06:14:02;;;;;;;6.05;5.75;;;;;;;10.47;100.00;100959.94;6026572;23;20014;-74
2022/09/18 06:16:29;;;;;;;4.80;4.50;;;;;;;9.56;100.00;100800.72;6030064;23;20043;-74
2022/09/18 06:18:55;;;;;;;4.50;4.30;;;;;;;10.68;100.00;100986.06;6006622;23;20546;-74
2022/09/18 06:21:21;;;;;;;4.10;3.90;;;;;;;9.76;100.00;100829.50;6013586;23;20031;-74
2022/09/18 06:23:48;;;;;;;5.85;4.20;;;;;;;10.91;100.00;101012.06;6009802;23;20812;-74
2022/09/18 06:26:14;;;;;;;5.85;5.55;;;;;;;10.47;100.00;100935.47;6008974;23;20650;-73
2022/09/18 06:28:41;;;;;;;4.60;4.40;;;;;;;10.54;100.00;100945.63;6026832;23;20022;-73
2022/09/18 06:31:08;;;;;;;5.85;5.55;;;;;;;11.01;100.00;101014.25;5998609;23;20023;-74
2022/09/18 06:33:35;;;;;;;4.22;4.03;;;;;;;10.43;100.00;100918.19;6025879;23;20030;-73
2022/09/18 06:36:07;;;;;;;5.20;5.00;;;;;;;11.09;100.00;101010.31;6017293;23;20014;-73
2022/09/18 06:38:33;;;;;;;4.35;4.15;;;;;;;11.01;100.00;100982.75;6004777;23;20052;-73
2022/09/18 06:41:00;;;;;;;5.20;4.97;;;;;;;10.81;100.00;100941.72;6034657;23;20030;-74
2022/09/18 06:43:27;;;;;;;4.72;4.53;;;;;;;11.20;100.00;101007.16;6052740;23;20357;-73
2022/09/18 06:45:54;;;;;;;4.70;4.50;;;;;;;11.07;100.00;100985.91;6039424;23;20039;-74
2022/09/18 06:48:22;;;;;;;4.45;4.25;;;;;;;10.64;100.00;100919.75;6038533;23;20050;-74
2022/09/18 06:50:53;;;;;;;4.60;4.40;;;;;;;10.47;100.00;100890.88;6058500;23;20027;-73
2022/09/18 06:53:20;;;;;;;4.43;4.22;;;;;;;11.17;100.00;101000.28;6043743;23;20014;-74
2022/09/18 06:55:47;;;;;;;5.07;4.78;;;;;;;11.17;100.00;101007.31;6017298;23;20022;-74
2022/09/18 06:58:16;;;;;;;5.18;4.97;;;;;;;10.77;100.00;100939.22;6058252;23;20649;-75
2022/09/18 07:00:43;;;;;;;4.65;4.30;;;;;;;11.25;100.00;101009.56;6064873;23;20014;-73
2022/09/18 07:03:10;;;;;;;5.95;5.63;;;;;;;11.31;100.00;100996.97;6026743;23;20526;-74
2022/09/18 07:05:41;;;;;;;4.70;4.50;;;;;;;11.41;100.00;101002.63;6059658;23;20075;-75
2022/09/18 07:08:08;;;;;;;6.15;5.82;;;;;;;10.11;100.00;100769.28;6058090;23;20087;-75
2022/09/18 07:10:35;;;;;;;4.72;4.53;;;;;;;11.54;100.00;100993.16;6054679;23;20014;-73
2022/09/18 07:13:01;;;;;;;6.10;5.80;;;;;;;11.66;100.00;100989.03;6043930;23;20072;-74
2022/09/18 07:15:28;;;;;;;4.28;4.07;;;;;;;11.78;100.00;100988.41;6057150;23;20088;-73
2022/09/18 07:17:56;;;;;;;4.72;4.53;;;;;;;11.84;100.00;100989.03;6031486;23;20048;-74
2022/09/18 07:20:22;;;;;;;5.90;5.60;;;;;;;10.72;100.00;100788.13;6060582;23;20052;-74
2022/09/18 07:22:57;;;;;;;4.50;4.30;;;;;;;11.46;100.00;100903.34;6045743;23;20088;-74
2022/09/18 07:25:28;;;;;;;5.30;4.85;;;;;;;11.97;100.00;100995.38;6050910;23;20068;-74
2022/09/18 07:27:55;;;;;;;9.90;5.35;;;;;;;10.52;100.00;100795.28;6052166;23;20044;-74
2022/09/18 07:30:21;;;;;;;5.13;4.82;;;;;;;11.93;100.00;100989.41;6047270;23;20030;-74
2022/09/18 07:32:48;;;;;;;5.13;4.82;;;;;;;11.98;100.00;100981.28;6062743;23;20018;-73
2022/09/18 07:35:14;;;;;;;5.47;5.18;;;;;;;12.00;100.00;101003.09;6048276;23;20576;-74
2022/09/18 07:37:42;;;;;;;7.30;5.05;;;;;;;11.76;100.00;100957.88;6062801;23;20046;-74
2022/09/18 07:40:10;;;;;;;6.07;5.78;;;;;;;11.72;100.00;100946.66;6054138;23;20462;-73
2022/09/18 07:42:38;;;;;;;5.10;4.80;;;;;;;11.72;100.00;100940.56;6054070;23;20026;-74
2022/09/18 07:45:05;;;;;;;5.97;5.68;;;;;;;11.72;100.00;100948.44;6020692;23;20036;-74
2022/09/18 07:47:31;;;;;;;6.00;5.43;;;;;;;11.41;100.00;100873.00;6026283;23;20089;-74
2022/09/18 07:49:58;;;;;;;5.75;5.45;;;;;;;12.34;100.00;100991.59;5994534;23;20023;-73
2022/09/18 07:52:24;;;;;;;4.97;4.78;;;;;;;12.27;100.00;100936.75;6003716;23;20007;-74
2022/09/18 07:54:50;;;;;;;4.45;4.25;;;;;;;11.86;100.00;100845.16;6026546;23;20038;-75
2022/09/18 07:57:17;;;;;;;5.07;4.78;;;;;;;12.34;100.00;100874.94;6027747;23;20019;-74
2022/09/18 07:59:43;;;;;;;5.10;4.80;;;;;;;12.84;100.00;100931.75;6031015;23;20107;-73
2022/09/18 08:02:10;;;;;;;6.47;6.07;;;;;;;13.20;100.00;100987.66;6025502;23;20087;-74
2022/09/18 08:04:37;;;;;;;5.38;5.07;;;;;;;13.09;100.00;100943.47;6033347;23;20025;-73
2022/09/18 08:07:04;;;;;;;6.10;5.80;;;;;;;13.13;100.00;100984.56;6024787;23;20498;-75
2022/09/18 08:09:30;;;;;;;4.82;4.63;;;;;;;12.55;100.00;100907.09;6031934;23;20413;-75
2022/09/18 08:11:57;;;;;;;5.43;5.13;;;;;;;12.26;100.00;100861.38;6010806;23;20618;-74
2022/09/18 08:14:24;;;;;;;5.20;4.90;;;;;;;12.69;100.00;100941.38;6029414;23;20081;-77
2022/09/18 08:16:54;;;;;;;4.95;4.72;;;;;;;12.27;100.00;100861.28;6021434;23;20536;-75
2022/09/18 08:19:21;;;;;;;4.93;4.72;;;;;;;11.92;100.00;100816.75;6020315;23;20653;-81
2022/09/18 08:21:47;;;;;;;4.70;4.50;;;;;;;12.40;100.00;100876.38;6020478;23;20006;-79
2022/09/18 08:24:16;;;;;;;5.50;5.20;;;;;;;12.35;100.00;100877.50;5995600;23;20019;-80
2022/09/18 08:26:42;;;;;;;4.90;4.70;;;;;;;12.61;100.00;100892.72;6033461;23;20011;-76
2022/09/18 08:29:08;;;;;;;4.70;4.50;;;;;;;12.53;100.00;100890.56;6018087;23;20426;-76
2022/09/18 08:31:35;;;;;;;6.22;5.63;;;;;;;13.25;100.00;101004.03;6023729;23;20566;-67
2022/09/18 08:34:01;;;;;;;6.57;6.18;;;;;;;13.26;100.00;101003.13;6001594;23;20031;-68
2022/09/18 08:36:28;;;;;;;4.50;4.30;;;;;;;12.87;100.00;100951.78;6032615;23;20022;-74
2022/09/18 08:38:54;;;;;;;4.95;4.75;;;;;;;12.90;100.00;101005.13;6033391;23;20038;-71
2022/09/18 08:41:37;;;;;;;4.80;4.55;;;;;;;12.91;100.00;101008.63;6029870;23;20081;-72
2022/09/18 08:44:23;;;;;;;5.60;5.35;;;;;;;12.84;100.00;100973.88;6021857;23;20468;-70
2022/09/18 08:47:02;;;;;;;4.80;4.60;;;;;;;13.10;100.00;101000.53;6021722;23;20043;-69
2022/09/18 08:49:39;;;;;;;4.80;4.60;;;;;;;13.25;100.00;101001.41;6009056;23;20065;-69
2022/09/18 08:52:15;;;;;;;5.88;5.57;;;;;;;13.20;100.00;100998.22;6019201;23;20050;-69
2022/09/18 08:54:50;;;;;;;5.00;4.80;;;;;;;13.16;100.00;100995.72;6027890;23;20035;-72
2022/09/18 08:57:24;;;;;;;5.07;4.80;;;;;;;13.38;100.00;100994.50;6003247;23;20453;-71
2022/09/18 09:00:08;;;;;;;5.32;5.03;;;;;;;12.88;100.00;100922.72;6010947;23;20026;-73
2022/09/18 09:02:40;;;;;;;4.82;4.63;;;;;;;13.16;100.00;101011.53;6014798;23;20041;-74
2022/09/18 09:05:12;;;;;;;6.77;6.27;;;;;;;12.28;100.00;100889.28;5997088;23;20515;-73
2022/09/18 09:07:51;;;;;;;5.30;4.90;;;;;;;13.02;100.00;101008.03;5998647;23;20012;-73
2022/09/18 09:10:41;;;;;;;4.80;4.60;;;;;;;12.40;100.00;100900.06;6023696;23;20023;-74
2022/09/18 09:13:53;;;;;;;6.65;6.25;;;;;;;11.91;100.00;100851.06;6030863;23;20043;-73
2022/09/18 09:16:26;;;;;;;5.20;4.85;;;;;;;12.48;100.00;100945.22;5995451;23;20095;-72
2022/09/18 09:19:16;;;;;;;;;;;;;;;13.00;100.00;100997.56;6020081;23;20628;-76
2022/09/18 09:22:16;;;;;;;10.38;4.93;;;;;;;13.06;100.00;100991.09;5995271;23;19922;-75
2022/09/18 09:25:01;;;;;;;4.80;4.60;;;;;;;13.17;100.00;100955.28;6021856;23;20046;-76
2022/09/18 09:27:36;;;;;;;5.07;4.78;;;;;;;13.45;100.00;100989.72;6004109;23;20043;-76
2022/09/18 09:30:10;;;;;;;6.00;5.70;;;;;;;13.32;100.00;100985.19;6029230;23;20022;-75
2022/09/18 09:32:43;;;;;;;5.40;5.10;;;;;;;13.06;100.00;100970.88;6040022;23;20471;-76
2022/09/18 09:35:22;;;;;;;6.30;6.00;;;;;;;12.62;100.00;100939.19;6026792;23;20085;-75
2022/09/18 09:37:50;;;;;;;4.60;4.40;;;;;;;12.78;100.00;101003.22;6028562;23;20114;-76
2022/09/18 09:40:34;;;;;;;5.18;4.78;;;;;;;12.84;100.00;100996.75;6027235;23;20169;-77
2022/09/18 09:43:10;;;;;;;5.65;5.35;;;;;;;12.72;100.00;100991.22;6031299;23;20049;-75
2022/09/18 09:45:55;;;;;;;4.78;4.57;;;;;;;12.74;100.00;100997.25;6004484;23;20019;-76
2022/09/18 09:48:27;;;;;;;4.85;4.55;;;;;;;12.78;100.00;100982.97;6038591;23;20420;-77
2022/09/18 09:51:01;;;;;;;4.82;4.63;;;;;;;12.49;100.00;100957.47;6039099;23;20534;-75
2022/09/18 09:53:28;;;;;;;4.93;4.63;;;;;;;12.18;100.00;100888.94;6044655;23;21272;-78
2022/09/18 09:56:21;;;;;;;5.13;4.82;;;;;;;12.85;100.00;100972.09;6047523;23;21386;-76
2022/09/18 09:58:59;;;;;;;4.70;4.50;;;;;;;11.64;100.00;100782.38;6031692;23;20034;-77
2022/09/18 10:01:34;;;;;;;7.63;5.22;;;;;;;12.60;100.00;100941.06;6027329;23;20021;-77
2022/09/18 10:04:12;;;;;;;;;;;;;;;12.70;100.00;100944.88;6031469;23;20676;-76
2022/09/18 10:06:50;;;;;;;4.80;4.50;;;;;;;12.27;100.00;100884.13;6029860;23;19930;-76
2022/09/18 10:09:45;;;;;;;5.10;4.80;;;;;;;12.65;100.00;100934.59;6025104;23;20034;-78
2022/09/18 10:12:23;;;;;;;6.07;5.78;;;;;;;12.65;100.00;100891.59;6036983;23;20027;-78
2022/09/18 10:14:54;;;;;;;4.75;4.55;;;;;;;12.90;100.00;100891.03;6030552;23;20007;-77
2022/09/18 10:17:22;;;;;;;5.70;5.15;;;;;;;12.82;100.00;100843.22;6043436;23;20078;-78
2022/09/18 10:19:49;;;;;;;5.25;4.95;;;;;;;12.53;100.00;100801.03;6042308;23;20030;-77
2022/09/18 10:22:21;;;;;;;5.18;4.88;;;;;;;12.98;100.00;100880.88;6035867;23;20035;-78
2022/09/18 10:25:00;;;;;;;5.50;5.00;;;;;;;12.98;100.00;100881.72;6044824;23;20055;-81
2022/09/18 10:27:26;;;;;;;11.68;4.82;;;;;;;12.12;100.00;100707.78;6039692;23;20019;-78
2022/09/18 10:29:53;;;;;;;4.82;4.57;;;;;;;13.08;100.00;100860.94;6036612;23;20469;-77
2022/09/18 10:32:35;;;;;;;4.70;4.50;;;;;;;13.55;100.00;100946.91;6018930;23;20088;-79
2022/09/18 10:35:30;;;;;;;6.43;6.00;;;;;;;13.80;100.00;100953.31;6008135;23;20010;-78
2022/09/18 10:37:58;;;;;;;5.13;4.93;;;;;;;13.91;100.00;100947.34;6033046;23;20065;-77
2022/09/18 10:40:33;;;;;;;4.90;4.70;;;;;;;14.19;100.00;100957.03;6040956;23;20018;-79
2022/09/18 10:43:00;;;;;;;6.43;6.13;;;;;;;13.64;100.00;100866.38;6037578;23;20679;-83
2022/09/18 10:45:28;;;;;;;5.50;5.20;;;;;;;14.27;100.00;100944.22;6040062;23;20030;-79
2022/09/18 10:48:05;;;;;;;5.03;4.82;;;;;;;13.80;100.00;100863.63;6042535;23;20241;-80
2022/09/18 10:50:32;;;;;;;5.10;4.80;;;;;;;13.63;100.00;100874.38;6029784;23;20033;-79
2022/09/18 10:53:30;;;;;;;6.07;5.78;;;;;;;14.03;100.00;100927.28;6038274;23;20653;-78
2022/09/18 10:56:03;;;;;;;5.40;5.10;;;;;;;14.07;100.00;100942.84;6032733;23;20023;-80
2022/09/18 10:58:32;;;;;;;4.78;4.50;;;;;;;13.97;100.00;100902.13;6026871;23;20670;-77
2022/09/18 11:01:02;;;;;;;5.47;5.20;;;;;;;13.97;100.00;100883.66;6019704;23;20026;-78
2022/09/18 11:03:45;;;;;;;5.10;4.90;;;;;;;14.50;100.00;100940.09;6039358;23;20026;-78
2022/09/18 11:06:22;;;;;;;6.13;5.82;;;;;;;14.17;100.00;100874.44;6030208;23;20034;-79
2022/09/18 11:08:51;;;;;;;5.25;4.80;;;;;;;13.55;100.00;100766.72;6051615;23;20032;-79
2022/09/18 11:11:27;;;;;;;5.20;4.90;;;;;;;14.55;100.00;100940.63;6033500;23;20038;-77
2022/09/18 11:14:00;;;;;;;5.03;4.82;;;;;;;14.61;100.00;100883.94;6054616;23;20089;-77
2022/09/18 11:16:30;;;;;;;4.72;4.53;;;;;;;14.82;100.00;100931.03;6031331;23;20018;-78
2022/09/18 11:19:09;;;;;;;5.68;5.38;;;;;;;14.78;100.00;100926.91;6048122;23;20014;-78
2022/09/18 11:21:54;;;;;;;5.50;5.05;;;;;;;14.92;100.00;100943.53;6033116;23;20523;-78
2022/09/18 11:24:23;;;;;;;6.28;5.97;;;;;;;14.80;100.00;100938.22;6042017;23;20839;-78
2022/09/18 11:26:58;;;;;;;5.05;4.80;;;;;;;14.38;100.00;100847.63;6042080;23;20068;-79
2022/09/18 11:29:33;;;;;;;5.28;5.00;;;;;;;13.72;100.00;100720.84;6036012;23;20034;-78
2022/09/18 11:32:25;;;;;;;17.83;6.50;;;;;;;15.13;100.00;100941.25;6013356;23;20039;-78
2022/09/18 11:34:54;;;;;;;5.50;5.20;;;;;;;14.97;100.00;100937.94;6042238;23;20031;-78
2022/09/18 11:37:30;;;;;;;5.38;5.07;;;;;;;14.97;100.00;100937.94;6024749;23;20065;-78